createdAt,value
2022-12-14T00:00:23.565Z,-2.48
2022-12-14T00:03:25.206Z,-2.46
2022-12-14T00:06:29.816Z,-2.43
2022-12-14T00:09:31.302Z,-2.44
2022-12-14T00:12:32.794Z,-2.43
2022-12-14T00:15:36.127Z,-2.55
2022-12-14T00:18:38.739Z,-2.52
2022-12-14T00:21:40.201Z,-2.48
2022-12-14T00:24:41.947Z,-2.42
2022-12-14T00:27:45.030Z,-2.46
2022-12-14T00:30:46.569Z,-2.56
2022-12-14T00:33:48.332Z,-2.53
2022-12-14T00:36:49.862Z,-2.52
2022-12-14T00:39:51.511Z,-2.47
2022-12-14T00:42:53.219Z,-2.40
2022-12-14T00:45:55.200Z,-2.35
2022-12-14T00:48:56.717Z,-2.24
2022-12-14T00:51:58.265Z,-2.18
2022-12-14T00:55:00.437Z,-2.20
2022-12-14T00:58:01.999Z,-2.15
2022-12-14T01:01:06.882Z,-2.15
2022-12-14T01:04:22.378Z,-2.19
2022-12-14T01:07:24.060Z,-2.26
2022-12-14T01:10:25.583Z,-2.32
2022-12-14T01:13:27.372Z,-2.20
2022-12-14T01:16:29.260Z,-2.14
2022-12-14T01:19:31.065Z,-2.09
2022-12-14T01:22:32.531Z,-2.13
2022-12-14T01:25:34.212Z,-2.16
2022-12-14T01:28:36.404Z,-2.10
2022-12-14T01:31:38.918Z,-2.04
2022-12-14T01:34:40.531Z,-2.00
2022-12-14T01:37:42.068Z,-1.92
2022-12-14T01:40:43.508Z,-2.02
2022-12-14T01:43:50.602Z,-2.03
2022-12-14T01:46:59.771Z,-2.01
2022-12-14T01:50:10.797Z,-2.07
2022-12-14T01:53:18.484Z,-1.95
2022-12-14T01:56:20.140Z,-1.84
2022-12-14T01:59:31.143Z,-1.86
2022-12-14T02:02:33.082Z,-1.96
2022-12-14T02:05:37.564Z,-2.02
2022-12-14T02:08:39.669Z,-2.05
2022-12-14T02:11:55.523Z,-2.14
2022-12-14T02:14:57.647Z,-2.00
2022-12-14T02:18:01.883Z,-1.93
2022-12-14T02:21:34.236Z,-2.04
2022-12-14T02:24:49.273Z,-1.99
2022-12-14T02:28:01.994Z,-1.98
2022-12-14T02:31:26.222Z,-2.14
2022-12-14T02:34:33.750Z,-2.14
2022-12-14T02:37:40.364Z,-2.19
2022-12-14T02:41:03.471Z,-2.07
2022-12-14T02:44:19.986Z,-1.97
2022-12-14T02:47:35.272Z,-1.89
2022-12-14T02:50:49.190Z,-1.95
2022-12-14T02:54:24.808Z,-1.90
2022-12-14T02:57:37.170Z,-1.81
2022-12-14T03:00:39.020Z,-1.89
2022-12-14T03:03:41.436Z,-1.95
2022-12-14T03:06:58.436Z,-1.96
2022-12-14T03:10:14.875Z,-1.89
2022-12-14T03:13:44.663Z,-1.94
2022-12-14T03:16:50.315Z,-1.91
2022-12-14T03:20:12.305Z,-1.82
2022-12-14T03:23:21.457Z,-1.71
2022-12-14T03:26:45.613Z,-1.65
2022-12-14T03:29:55.244Z,-1.61
2022-12-14T03:33:03.556Z,-1.58
2022-12-14T03:36:14.219Z,-1.59
2022-12-14T03:39:29.451Z,-1.64
2022-12-14T03:42:54.825Z,-1.61
2022-12-14T03:46:08.287Z,-1.62
2022-12-14T03:49:15.516Z,-1.61
2022-12-14T03:52:35.168Z,-1.61
2022-12-14T03:56:00.964Z,-1.60
2022-12-14T03:59:12.300Z,-1.71
2022-12-14T04:02:19.353Z,-1.78
2022-12-14T04:05:20.942Z,-1.84
2022-12-14T04:08:31.431Z,-1.78
2022-12-14T04:11:56.726Z,-1.68
2022-12-14T04:15:30.231Z,-1.54
2022-12-14T04:18:59.691Z,-1.41
2022-12-14T04:22:13.924Z,-1.53
2022-12-14T04:25:40.572Z,-1.47
2022-12-14T04:29:10.961Z,-1.35
2022-12-14T04:32:22.185Z,-1.35
2022-12-14T04:35:40.169Z,-1.33
2022-12-14T04:38:44.120Z,-1.37
2022-12-14T04:41:50.129Z,-1.28
2022-12-14T04:45:01.219Z,-1.28
2022-12-14T04:48:23.906Z,-1.31
2022-12-14T04:51:36.231Z,-1.37
2022-12-14T04:55:00.911Z,-1.39
2022-12-14T04:58:13.559Z,-1.41
2022-12-14T05:01:49.483Z,-1.43
2022-12-14T05:05:08.656Z,-1.40
2022-12-14T05:08:27.170Z,-1.38
2022-12-14T05:11:53.155Z,-1.22
2022-12-14T05:15:08.065Z,-1.16
2022-12-14T05:18:10.258Z,-1.23
2022-12-14T05:21:34.769Z,-1.23
2022-12-14T05:24:36.464Z,-1.27
2022-12-14T05:27:40.874Z,-1.18
2022-12-14T05:30:42.642Z,-1.12
2022-12-14T05:33:50.445Z,-1.12
2022-12-14T05:36:51.936Z,-1.19
2022-12-14T05:39:54.545Z,-1.25
2022-12-14T05:43:13.207Z,-1.25
2022-12-14T05:46:17.219Z,-1.20
2022-12-14T05:49:18.819Z,-1.23
2022-12-14T05:52:20.513Z,-1.19
2022-12-14T05:55:22.354Z,-1.17
2022-12-14T05:58:23.872Z,-1.16
2022-12-14T06:01:25.450Z,-1.24
2022-12-14T06:04:27.123Z,-1.31
2022-12-14T06:07:28.637Z,-1.49
2022-12-14T06:10:30.172Z,-1.52
2022-12-14T06:13:31.755Z,-1.47
2022-12-14T06:16:34.208Z,-1.62
2022-12-14T06:19:35.747Z,-1.54
2022-12-14T06:22:39.478Z,-1.53
2022-12-14T06:25:44.401Z,-1.49
2022-12-14T06:28:46.114Z,-1.44
2022-12-14T06:31:49.468Z,-1.29
2022-12-14T06:34:51.348Z,-1.20
2022-12-14T06:37:52.891Z,-1.19
2022-12-14T06:40:55.080Z,-1.20
2022-12-14T06:43:57.280Z,-1.16
2022-12-14T06:46:58.950Z,-1.17
2022-12-14T06:50:00.620Z,-1.21
2022-12-14T06:53:02.132Z,-1.32
2022-12-14T06:56:12.942Z,-1.46
2022-12-14T06:59:16.656Z,-1.37
2022-12-14T07:02:18.320Z,-1.32
2022-12-14T07:05:20.533Z,-1.32
2022-12-14T07:08:22.015Z,-1.25
2022-12-14T07:11:24.190Z,-1.25
2022-12-14T07:14:25.802Z,-1.42
2022-12-14T07:17:27.956Z,-1.47
2022-12-14T07:20:29.590Z,-1.61
2022-12-14T07:23:33.509Z,-1.59
2022-12-14T07:26:36.374Z,-1.61
2022-12-14T07:29:37.964Z,-1.70
2022-12-14T07:32:39.507Z,-1.68
2022-12-14T07:35:41.211Z,-1.61
2022-12-14T07:38:44.539Z,-1.62
2022-12-14T07:41:47.609Z,-1.52
2022-12-14T07:44:55.367Z,-1.37
2022-12-14T07:47:58.036Z,-1.31
2022-12-14T07:51:08.271Z,-1.30
2022-12-14T07:54:11.475Z,-1.30
2022-12-14T07:57:13.010Z,-1.19
2022-12-14T08:00:14.794Z,-1.25
2022-12-14T08:03:16.446Z,-1.36
2022-12-14T08:06:20.504Z,-1.43
2022-12-14T08:09:21.925Z,-1.42
2022-12-14T08:12:23.682Z,-1.46
2022-12-14T08:15:25.279Z,-1.50
2022-12-14T08:18:26.799Z,-1.38
2022-12-14T08:21:29.084Z,-1.25
2022-12-14T08:24:30.587Z,-1.30
2022-12-14T08:27:32.183Z,-1.20
2022-12-14T08:30:38.912Z,-1.27
2022-12-14T08:33:41.831Z,-1.36
2022-12-14T08:36:43.401Z,-1.29
2022-12-14T08:39:45.114Z,-1.12
2022-12-14T08:42:51.198Z,-0.93
2022-12-14T08:45:54.886Z,-0.79
2022-12-14T08:48:56.843Z,-0.64
2022-12-14T08:51:58.335Z,-0.46
2022-12-14T08:55:00.042Z,-0.33
2022-12-14T08:58:01.724Z,-0.33
2022-12-14T09:01:12.305Z,-0.36
2022-12-14T09:04:13.997Z,-0.42
2022-12-14T09:07:15.898Z,-0.34
2022-12-14T09:10:17.396Z,-0.37
2022-12-14T09:13:19.094Z,-0.43
2022-12-14T09:16:21.872Z,-0.34
2022-12-14T09:19:23.458Z,-0.30
2022-12-14T09:22:25.023Z,-0.28
2022-12-14T09:25:26.741Z,-0.17
2022-12-14T09:28:29.267Z,-0.11
2022-12-14T09:31:30.843Z,0.06
2022-12-14T09:34:32.376Z,0.14
2022-12-14T09:37:33.926Z,0.22
2022-12-14T09:40:35.619Z,0.26
2022-12-14T09:43:47.857Z,0.36
2022-12-14T09:47:10.835Z,0.47
2022-12-14T09:50:18.785Z,0.57
2022-12-14T09:53:21.816Z,0.52
2022-12-14T09:56:23.564Z,0.46
2022-12-14T09:59:28.139Z,0.40
2022-12-14T10:02:45.124Z,0.45
2022-12-14T10:06:05.566Z,0.55
2022-12-14T10:09:14.761Z,0.48
2022-12-14T10:12:52.656Z,0.46
2022-12-14T10:16:00.321Z,0.60
2022-12-14T10:19:33.683Z,0.70
2022-12-14T10:22:39.672Z,0.70
2022-12-14T10:25:43.996Z,0.72
2022-12-14T10:29:00.944Z,0.77
2022-12-14T10:32:28.917Z,0.77
2022-12-14T10:35:45.660Z,0.74
2022-12-14T10:39:02.128Z,0.75
2022-12-14T10:42:34.049Z,0.66
2022-12-14T10:45:54.547Z,0.66
2022-12-14T10:49:21.138Z,0.64
2022-12-14T10:52:25.601Z,0.76
2022-12-14T10:55:38.805Z,0.86
2022-12-14T10:58:40.682Z,0.86
2022-12-14T11:01:42.960Z,0.89
2022-12-14T11:04:51.349Z,0.92
2022-12-14T11:07:53.023Z,1.00
2022-12-14T11:11:18.671Z,1.03
2022-12-14T11:14:23.403Z,1.01
2022-12-14T11:17:44.099Z,0.96
2022-12-14T11:21:04.441Z,0.77
2022-12-14T11:24:06.873Z,0.79
2022-12-14T11:27:11.136Z,0.65
2022-12-14T11:30:16.652Z,0.69
2022-12-14T11:33:18.262Z,0.75
2022-12-14T11:36:31.893Z,0.65
2022-12-14T11:39:40.892Z,0.51
2022-12-14T11:42:49.000Z,0.34
2022-12-14T11:45:51.608Z,0.21
2022-12-14T11:48:53.326Z,0.13
2022-12-14T11:52:20.073Z,0.09
2022-12-14T11:55:26.661Z,0.14
2022-12-14T11:58:33.519Z,0.12
2022-12-14T12:01:35.633Z,0.05
2022-12-14T12:04:44.324Z,-0.10
2022-12-14T12:07:58.106Z,-0.17
2022-12-14T12:11:02.561Z,-0.28
2022-12-14T12:14:18.828Z,-0.44
2022-12-14T12:17:36.144Z,-0.64
2022-12-14T12:20:42.656Z,-0.49
2022-12-14T12:23:57.301Z,-0.55
2022-12-14T12:27:11.859Z,-0.66
2022-12-14T12:30:29.297Z,-0.56
2022-12-14T12:33:56.363Z,-0.48
2022-12-14T12:37:25.960Z,-0.33
2022-12-14T12:40:56.138Z,-0.43
2022-12-14T12:44:49.548Z,-0.41
2022-12-14T12:48:01.778Z,-0.35
2022-12-14T12:51:13.285Z,-0.17
2022-12-14T12:54:21.797Z,-0.07
2022-12-14T12:57:28.325Z,0.09
2022-12-14T13:00:31.177Z,0.24
2022-12-14T13:03:47.201Z,0.35
2022-12-14T13:06:53.957Z,0.45
2022-12-14T13:10:05.875Z,0.65
2022-12-14T13:13:14.879Z,0.67
2022-12-14T13:16:29.410Z,0.67
2022-12-14T13:19:50.510Z,0.56
2022-12-14T13:22:53.723Z,0.54
2022-12-14T13:26:07.752Z,0.69
2022-12-14T13:29:27.539Z,0.71
2022-12-14T13:32:44.343Z,0.84
2022-12-14T13:36:18.115Z,0.95
2022-12-14T13:39:36.480Z,0.84
2022-12-14T13:42:52.732Z,0.84
2022-12-14T13:45:54.946Z,0.93
2022-12-14T13:49:06.821Z,0.91
2022-12-14T13:52:35.283Z,0.88
2022-12-14T13:55:46.132Z,0.96
2022-12-14T13:58:50.747Z,0.99
2022-12-14T14:01:55.653Z,0.86
2022-12-14T14:05:15.433Z,0.73
2022-12-14T14:08:41.018Z,0.54
2022-12-14T14:11:44.953Z,0.58
2022-12-14T14:15:51.978Z,0.35
2022-12-14T14:19:12.944Z,0.21
2022-12-14T14:22:27.127Z,0.30
2022-12-14T14:25:34.474Z,0.08
2022-12-14T14:28:37.903Z,0.03
2022-12-14T14:32:00.887Z,0.03
2022-12-14T14:35:27.216Z,-0.06
2022-12-14T14:38:31.829Z,-0.02
2022-12-14T14:41:42.484Z,0.13
2022-12-14T14:44:56.663Z,0.28
2022-12-14T14:48:02.219Z,0.43
2022-12-14T14:51:14.476Z,0.45
2022-12-14T14:54:37.011Z,0.43
2022-12-14T14:57:57.419Z,0.43
2022-12-14T15:01:06.171Z,0.41
2022-12-14T15:04:23.066Z,0.43
2022-12-14T15:07:29.850Z,0.36
2022-12-14T15:10:37.362Z,0.31
2022-12-14T15:14:35.545Z,0.25
2022-12-14T15:17:37.148Z,0.24
2022-12-14T15:20:40.768Z,0.23
2022-12-14T15:23:49.475Z,0.17
2022-12-14T15:26:51.952Z,0.13
2022-12-14T15:30:06.563Z,0.05
2022-12-14T15:33:10.104Z,0.06
2022-12-14T15:36:16.107Z,0.08
2022-12-14T15:39:29.323Z,-0.10
2022-12-14T15:42:30.979Z,-0.04
2022-12-14T15:45:41.145Z,-0.05
2022-12-14T15:48:42.983Z,0.08
2022-12-14T15:51:44.789Z,-0.03
2022-12-14T15:54:46.396Z,0.11
2022-12-14T15:57:48.369Z,0.21
2022-12-14T16:00:52.465Z,0.25
2022-12-14T16:03:55.218Z,0.23
2022-12-14T16:07:08.261Z,0.24
2022-12-14T16:10:24.797Z,0.31
2022-12-14T16:13:37.019Z,0.33
2022-12-14T16:16:38.864Z,0.37
2022-12-14T16:19:58.492Z,0.35
2022-12-14T16:23:15.954Z,0.36
2022-12-14T16:26:26.786Z,0.36
2022-12-14T16:29:31.483Z,0.30
2022-12-14T16:32:33.012Z,0.28
2022-12-14T16:35:37.225Z,0.23
2022-12-14T16:38:54.995Z,0.19
2022-12-14T16:42:01.095Z,0.29
2022-12-14T16:45:02.779Z,0.22
2022-12-14T16:48:14.573Z,0.15
2022-12-14T16:51:32.762Z,0.10
2022-12-14T16:54:40.745Z,0.07
2022-12-14T16:57:52.631Z,0.06
2022-12-14T17:01:00.875Z,0.04
2022-12-14T17:04:04.932Z,-0.04
2022-12-14T17:07:06.808Z,0.03
2022-12-14T17:10:16.076Z,0.02
2022-12-14T17:13:17.948Z,0.04
2022-12-14T17:16:21.078Z,0.04
2022-12-14T17:19:37.051Z,-0.04
2022-12-14T17:22:38.639Z,-0.01
2022-12-14T17:25:44.669Z,0.04
2022-12-14T17:28:48.267Z,-0.03
2022-12-14T17:31:52.375Z,-0.03
2022-12-14T17:34:53.841Z,-0.05
2022-12-14T17:37:55.794Z,0.01
2022-12-14T17:40:57.457Z,0.07
2022-12-14T17:43:59.008Z,0.10
2022-12-14T17:47:00.569Z,0.18
2022-12-14T17:50:02.162Z,0.24
2022-12-14T17:53:03.714Z,0.29
2022-12-14T17:56:05.588Z,0.30
2022-12-14T17:59:07.185Z,0.35
2022-12-14T18:02:30.161Z,0.36
2022-12-14T18:05:34.255Z,0.38
2022-12-14T18:08:35.907Z,0.31
2022-12-14T18:11:49.355Z,0.34
2022-12-14T18:14:59.773Z,0.28
2022-12-14T18:18:01.690Z,0.30
2022-12-14T18:21:04.892Z,0.32
2022-12-14T18:24:11.507Z,0.19
2022-12-14T18:27:13.729Z,0.21
2022-12-14T18:30:15.360Z,0.26
2022-12-14T18:33:19.397Z,0.35
2022-12-14T18:36:21.565Z,0.38
2022-12-14T18:39:23.171Z,0.52
2022-12-14T18:42:25.391Z,0.55
2022-12-14T18:45:33.830Z,0.54
2022-12-14T18:48:35.294Z,0.57
2022-12-14T18:51:36.790Z,0.61
2022-12-14T18:54:38.232Z,0.61
2022-12-14T18:57:39.847Z,0.59
2022-12-14T19:00:41.368Z,0.54
2022-12-14T19:03:43.807Z,0.54
2022-12-14T19:06:46.040Z,0.60
2022-12-14T19:09:47.777Z,0.69
2022-12-14T19:12:50.582Z,0.74
2022-12-14T19:15:52.722Z,0.76
2022-12-14T19:18:54.409Z,0.75
2022-12-14T19:21:56.029Z,0.71
2022-12-14T19:24:57.632Z,0.74
2022-12-14T19:28:26.118Z,0.74
2022-12-14T19:31:22.062Z,0.72
2022-12-14T19:34:23.872Z,0.73
2022-12-14T19:37:25.555Z,0.78
2022-12-14T19:40:27.268Z,0.75
2022-12-14T19:43:29.833Z,0.66
2022-12-14T19:46:31.775Z,0.67
2022-12-14T19:49:33.540Z,0.62
2022-12-14T19:52:35.348Z,0.60
2022-12-14T19:55:36.870Z,0.68
2022-12-14T19:58:38.483Z,0.73
2022-12-14T20:01:46.260Z,0.71
2022-12-14T20:04:49.319Z,0.72
2022-12-14T20:07:50.905Z,0.78
2022-12-14T20:10:53.139Z,0.75
2022-12-14T20:13:58.897Z,0.84
2022-12-14T20:17:02.619Z,0.84
2022-12-14T20:20:04.563Z,0.84
2022-12-14T20:23:06.064Z,0.78
2022-12-14T20:26:12.202Z,0.80
2022-12-14T20:29:13.870Z,0.72
2022-12-14T20:32:15.520Z,0.73
2022-12-14T20:35:18.746Z,0.79
2022-12-14T20:38:20.266Z,0.83
2022-12-14T20:41:22.780Z,0.84
2022-12-14T20:44:24.385Z,0.82
2022-12-14T20:47:26.027Z,0.90
2022-12-14T20:50:27.641Z,0.87
2022-12-14T20:53:30.651Z,0.77
2022-12-14T20:56:34.315Z,0.76
2022-12-14T20:59:35.973Z,0.66
2022-12-14T21:03:02.620Z,0.67
2022-12-14T21:06:04.556Z,0.60
2022-12-14T21:09:10.322Z,0.54
2022-12-14T21:12:20.640Z,0.53
2022-12-14T21:15:22.217Z,0.60
2022-12-14T21:18:24.632Z,0.54
2022-12-14T21:21:26.476Z,0.48
2022-12-14T21:25:01.100Z,0.49
2022-12-14T21:27:49.965Z,0.40
2022-12-14T21:30:51.532Z,0.37
2022-12-14T21:33:54.600Z,0.29
2022-12-14T21:36:56.448Z,0.42
2022-12-14T21:39:58.025Z,0.54
2022-12-14T21:42:59.547Z,0.53
2022-12-14T21:46:01.196Z,0.39
2022-12-14T21:49:03.210Z,0.16
2022-12-14T21:52:07.545Z,0.05
2022-12-14T21:55:09.536Z,0.05
2022-12-14T21:58:17.220Z,-0.06
2022-12-14T22:01:18.977Z,0.04
2022-12-14T22:04:24.523Z,0.05
2022-12-14T22:07:31.268Z,0.06
2022-12-14T22:10:32.862Z,0.10
2022-12-14T22:13:37.669Z,0.23
2022-12-14T22:16:40.968Z,0.28
2022-12-14T22:19:42.700Z,0.31
2022-12-14T22:22:44.889Z,0.26
2022-12-14T22:25:50.211Z,0.23
2022-12-14T22:28:52.725Z,0.17
2022-12-14T22:31:54.238Z,0.13
2022-12-14T22:34:55.882Z,0.13
2022-12-14T22:37:58.779Z,0.19
2022-12-14T22:41:05.099Z,0.21
2022-12-14T22:44:11.620Z,0.09
2022-12-14T22:47:13.328Z,0.03
2022-12-14T22:50:15.006Z,0.14
2022-12-14T22:53:26.721Z,0.22
2022-12-14T22:56:57.666Z,0.10
2022-12-14T23:00:04.837Z,-0.09
2022-12-14T23:03:06.836Z,-0.28
2022-12-14T23:06:15.505Z,-0.37
2022-12-14T23:09:35.437Z,-0.37
2022-12-14T23:12:55.760Z,-0.29
2022-12-14T23:16:16.021Z,-0.26
2022-12-14T23:19:36.103Z,-0.12
2022-12-14T23:22:56.485Z,-0.26
2022-12-14T23:26:20.532Z,-0.22
2022-12-14T23:29:40.397Z,-0.18
2022-12-14T23:33:00.319Z,-0.39
2022-12-14T23:36:20.368Z,-0.40
2022-12-14T23:39:40.235Z,-0.47
2022-12-14T23:43:00.253Z,-0.41
2022-12-14T23:46:24.499Z,-0.52
2022-12-14T23:49:44.620Z,-0.63
2022-12-14T23:53:04.495Z,-0.63
2022-12-14T23:56:25.106Z,-0.66
2022-12-14T23:59:49.532Z,-0.62
